createdAt,value
2023-08-06T00:00:52.062Z,20.26
2023-08-06T00:03:22.263Z,20.29
2023-08-06T00:06:00.054Z,20.60
2023-08-06T00:08:30.069Z,20.55
2023-08-06T00:11:00.341Z,20.60
2023-08-06T00:13:35.526Z,20.59
2023-08-06T00:16:15.419Z,20.62
2023-08-06T00:18:47.656Z,20.57
2023-08-06T00:21:20.177Z,20.61
2023-08-06T00:23:51.711Z,20.57
2023-08-06T00:26:27.881Z,20.51
2023-08-06T00:28:59.017Z,20.47
2023-08-06T00:31:29.364Z,20.41
2023-08-06T00:34:04.060Z,20.32
2023-08-06T00:36:33.092Z,20.29
2023-08-06T00:39:03.720Z,20.27
2023-08-06T00:41:32.818Z,20.22
2023-08-06T00:44:06.671Z,20.21
2023-08-06T00:46:36.475Z,20.14
2023-08-06T00:49:05.898Z,20.24
2023-08-06T00:51:38.471Z,20.27
2023-08-06T00:54:07.664Z,20.31
2023-08-06T00:56:38.160Z,20.32
2023-08-06T00:59:09.083Z,20.29
2023-08-06T01:02:03.524Z,20.33
2023-08-06T01:04:34.859Z,20.21
2023-08-06T01:07:12.440Z,20.18
2023-08-06T01:09:56.925Z,20.14
2023-08-06T01:12:42.682Z,20.10
2023-08-06T01:15:19.643Z,20.06
2023-08-06T01:17:49.439Z,20.17
2023-08-06T01:20:21.207Z,20.12
2023-08-06T01:22:57.624Z,20.11
2023-08-06T01:25:33.317Z,20.04
2023-08-06T01:28:10.243Z,20.04
2023-08-06T01:30:43.883Z,20.11
2023-08-06T01:33:18.365Z,20.02
2023-08-06T01:35:47.600Z,20.09
2023-08-06T01:38:20.101Z,20.09
2023-08-06T01:40:49.040Z,20.09
2023-08-06T01:43:17.924Z,20.04
2023-08-06T01:45:47.093Z,19.99
2023-08-06T01:48:23.050Z,20.01
2023-08-06T01:50:59.060Z,20.03
2023-08-06T01:53:35.315Z,20.10
2023-08-06T01:56:09.550Z,20.01
2023-08-06T01:58:47.661Z,20.10
2023-08-06T02:01:16.680Z,20.00
2023-08-06T02:03:45.554Z,20.02
2023-08-06T02:06:18.510Z,19.93
2023-08-06T02:08:49.329Z,19.99
2023-08-06T02:11:19.781Z,20.02
2023-08-06T02:13:51.703Z,19.97
2023-08-06T02:16:25.636Z,21.27
2023-08-06T02:19:00.194Z,22.97
2023-08-06T02:21:37.732Z,24.03
2023-08-06T02:24:10.623Z,24.67
2023-08-06T02:26:46.351Z,25.29
2023-08-06T02:29:17.090Z,25.54
2023-08-06T02:31:50.902Z,26.11
2023-08-06T02:34:22.682Z,26.24
2023-08-06T02:36:54.883Z,26.97
2023-08-06T02:39:30.652Z,27.61
2023-08-06T02:42:08.359Z,27.85
2023-08-06T02:44:43.215Z,28.27
2023-08-06T02:47:19.315Z,28.08
2023-08-06T02:49:51.612Z,25.22
2023-08-06T02:52:31.500Z,24.04
2023-08-06T02:55:14.945Z,23.45
2023-08-06T02:57:50.379Z,23.10
2023-08-06T03:00:40.452Z,22.66
2023-08-06T03:03:24.244Z,22.62
2023-08-06T03:06:04.003Z,22.41
2023-08-06T03:08:41.434Z,22.26
2023-08-06T03:11:14.008Z,22.48
2023-08-06T03:13:50.270Z,22.45
2023-08-06T03:16:20.118Z,22.55
2023-08-06T03:18:57.141Z,22.52
2023-08-06T03:21:29.192Z,22.56
2023-08-06T03:24:03.250Z,22.57
2023-08-06T03:26:37.831Z,22.58
2023-08-06T03:29:06.897Z,22.65
2023-08-06T03:31:37.365Z,22.70
2023-08-06T03:34:21.863Z,22.68
2023-08-06T03:36:54.412Z,22.81
2023-08-06T03:39:28.195Z,22.83
2023-08-06T03:42:05.234Z,22.78
2023-08-06T03:44:38.069Z,22.92
2023-08-06T03:47:12.240Z,23.04
2023-08-06T03:49:41.699Z,23.07
2023-08-06T03:52:14.741Z,23.15
2023-08-06T03:54:47.456Z,23.20
2023-08-06T03:57:24.463Z,23.36
2023-08-06T04:00:02.966Z,23.31
2023-08-06T04:02:36.851Z,23.30
2023-08-06T04:05:09.729Z,23.46
2023-08-06T04:07:38.864Z,23.57
2023-08-06T04:10:10.604Z,23.87
2023-08-06T04:12:43.376Z,24.01
2023-08-06T04:15:19.091Z,24.15
2023-08-06T04:17:50.839Z,24.11
2023-08-06T04:20:22.766Z,24.08
2023-08-06T04:22:52.099Z,24.14
2023-08-06T04:25:25.048Z,24.20
2023-08-06T04:28:01.415Z,24.19
2023-08-06T04:30:30.652Z,24.19
2023-08-06T04:33:02.295Z,24.26
2023-08-06T04:35:31.684Z,24.30
2023-08-06T04:38:04.269Z,24.39
2023-08-06T04:40:37.987Z,24.57
2023-08-06T04:43:14.157Z,24.51
2023-08-06T04:45:53.378Z,24.65
2023-08-06T04:48:26.914Z,24.70
2023-08-06T04:51:02.073Z,24.78
2023-08-06T04:53:35.733Z,24.86
2023-08-06T04:56:21.106Z,24.82
2023-08-06T04:59:08.335Z,24.84
2023-08-06T05:01:55.299Z,24.87
2023-08-06T05:04:29.136Z,25.07
2023-08-06T05:07:01.783Z,25.06
2023-08-06T05:09:56.211Z,25.12
2023-08-06T05:13:00.186Z,25.26
2023-08-06T05:15:57.411Z,25.38
2023-08-06T05:18:44.381Z,25.37
2023-08-06T05:21:49.272Z,25.39
2023-08-06T05:25:28.836Z,25.55
2023-08-06T05:28:51.173Z,25.58
2023-08-06T05:35:23.160Z,25.72
2023-08-06T05:38:14.260Z,25.75
2023-08-06T05:45:57.319Z,25.87
2023-08-06T05:49:05.693Z,25.91
2023-08-06T05:56:43.324Z,26.30
2023-08-06T05:59:45.532Z,26.35
2023-08-06T06:02:33.359Z,26.50
2023-08-06T06:05:34.316Z,26.43
2023-08-06T06:08:13.411Z,26.75
2023-08-06T06:12:11.422Z,26.75
2023-08-06T06:15:23.308Z,26.74
2023-08-06T06:17:55.216Z,26.85
2023-08-06T06:20:28.688Z,26.85
2023-08-06T06:22:57.221Z,26.95
2023-08-06T06:25:26.702Z,27.11
2023-08-06T06:28:05.496Z,27.16
2023-08-06T06:30:44.570Z,27.23
2023-08-06T06:33:36.649Z,27.18
2023-08-06T06:49:36.267Z,27.70
2023-08-06T06:52:31.814Z,27.84
2023-08-06T06:55:54.016Z,28.00
2023-08-06T07:01:43.905Z,28.06
2023-08-06T07:04:12.794Z,28.30
2023-08-06T07:07:35.527Z,28.34
2023-08-06T07:13:22.101Z,28.48
2023-08-06T07:15:57.196Z,28.71
2023-08-06T07:18:30.801Z,28.80
2023-08-06T07:21:16.395Z,28.99
2023-08-06T07:25:01.716Z,29.03
2023-08-06T07:28:16.594Z,28.89
2023-08-06T09:03:02.126Z,30.49
2023-08-06T09:19:42.078Z,30.78
2023-08-06T09:35:08.602Z,30.91
2023-08-06T09:38:03.870Z,31.24
2023-08-06T09:41:28.191Z,30.71
2023-08-06T10:29:29.643Z,30.78
2023-08-06T10:32:41.615Z,30.75
2023-08-06T10:35:51.710Z,30.78
2023-08-06T10:43:57.199Z,31.08
2023-08-06T10:46:43.751Z,31.37
2023-08-06T10:49:21.206Z,31.16
2023-08-06T10:51:52.593Z,31.16
2023-08-06T10:54:21.813Z,30.98
2023-08-06T10:56:52.942Z,30.84
2023-08-06T10:59:39.616Z,30.94
2023-08-06T11:02:13.259Z,31.32
2023-08-06T11:05:02.279Z,31.26
2023-08-06T11:07:34.497Z,31.11
2023-08-06T11:10:08.011Z,31.34
2023-08-06T11:12:37.290Z,30.89
2023-08-06T11:15:07.240Z,30.79
2023-08-06T11:17:37.638Z,30.52
2023-08-06T11:20:08.852Z,30.98
2023-08-06T11:22:39.218Z,31.11
2023-08-06T11:25:12.703Z,31.09
2023-08-06T11:27:43.569Z,31.28
2023-08-06T11:30:14.353Z,30.61
2023-08-06T11:32:53.282Z,31.07
2023-08-06T11:35:31.077Z,31.28
2023-08-06T11:38:01.999Z,31.05
2023-08-06T11:40:35.845Z,30.84
2023-08-06T11:43:58.786Z,31.10
2023-08-06T11:47:10.096Z,30.95
2023-08-06T11:49:48.248Z,30.69
2023-08-06T11:52:36.767Z,30.96
2023-08-06T11:55:43.108Z,30.81
2023-08-06T11:59:31.340Z,31.02
2023-08-06T12:02:47.037Z,31.32
2023-08-06T12:06:38.594Z,31.44
2023-08-06T12:09:33.084Z,31.65
2023-08-06T12:12:49.941Z,31.29
2023-08-06T12:15:44.436Z,31.11
2023-08-06T12:19:06.294Z,31.00
2023-08-06T12:21:56.971Z,30.56
2023-08-06T12:24:54.483Z,30.69
2023-08-06T12:27:45.677Z,30.69
2023-08-06T12:30:34.879Z,30.61
2023-08-06T12:33:09.269Z,30.65
2023-08-06T12:35:43.242Z,30.74
2023-08-06T12:38:12.227Z,30.80
2023-08-06T12:40:44.091Z,30.96
2023-08-06T12:43:13.267Z,30.97
2023-08-06T12:46:25.708Z,31.13
2023-08-06T12:49:47.245Z,31.12
2023-08-06T12:52:58.270Z,30.93
2023-08-06T12:56:17.957Z,30.81
2023-08-06T12:59:02.786Z,30.61
2023-08-06T13:01:34.788Z,30.77
2023-08-06T13:07:23.141Z,30.62
2023-08-06T13:10:06.469Z,30.31
2023-08-06T13:12:37.070Z,30.29
2023-08-06T13:15:06.434Z,30.31
2023-08-06T13:17:36.480Z,30.23
2023-08-06T13:20:55.688Z,30.46
2023-08-06T13:23:24.519Z,30.19
2023-08-06T13:25:53.077Z,30.43
2023-08-06T13:28:23.257Z,30.40
2023-08-06T13:30:52.027Z,30.11
2023-08-06T13:33:20.668Z,30.17
2023-08-06T13:35:49.289Z,30.25
2023-08-06T13:38:18.212Z,30.53
2023-08-06T13:40:47.639Z,30.31
2023-08-06T13:43:18.393Z,30.43
2023-08-06T13:45:51.135Z,30.36
2023-08-06T13:48:23.044Z,30.47
2023-08-06T13:50:52.024Z,30.48
2023-08-06T13:53:20.458Z,30.61
2023-08-06T13:55:48.994Z,30.54
2023-08-06T13:58:17.479Z,30.67
2023-08-06T14:00:47.578Z,30.67
2023-08-06T14:03:16.275Z,30.83
2023-08-06T14:05:45.359Z,30.74
2023-08-06T14:08:15.049Z,30.80
2023-08-06T14:10:43.991Z,30.58
2023-08-06T14:13:12.522Z,30.51
2023-08-06T14:15:41.812Z,30.35
2023-08-06T14:18:14.323Z,30.45
2023-08-06T14:20:45.888Z,30.30
2023-08-06T14:23:15.645Z,30.48
2023-08-06T14:25:44.186Z,30.61
2023-08-06T14:28:41.091Z,30.44
2023-08-06T14:31:42.163Z,30.30
2023-08-06T14:43:10.474Z,30.12
2023-08-06T14:45:40.725Z,30.20
2023-08-06T14:48:18.359Z,30.18
2023-08-06T14:50:51.372Z,30.38
2023-08-06T14:53:20.116Z,30.53
2023-08-06T14:55:49.079Z,30.37
2023-08-06T14:58:19.794Z,30.41
2023-08-06T15:00:48.733Z,30.34
2023-08-06T15:03:21.306Z,30.24
2023-08-06T15:05:51.732Z,30.26
2023-08-06T15:08:23.705Z,30.37
2023-08-06T15:10:56.865Z,30.07
2023-08-06T15:13:35.405Z,30.07
2023-08-06T15:16:04.124Z,29.97
2023-08-06T15:18:32.680Z,29.97
2023-08-06T15:21:02.772Z,29.98
2023-08-06T15:23:31.230Z,29.98
2023-08-06T15:26:00.114Z,30.03
2023-08-06T15:28:28.639Z,30.09
2023-08-06T15:30:57.825Z,29.92
2023-08-06T15:33:28.313Z,29.86
2023-08-06T15:35:57.115Z,29.74
2023-08-06T15:38:28.915Z,29.70
2023-08-06T15:40:58.488Z,29.61
2023-08-06T15:43:27.137Z,29.57
2023-08-06T15:45:55.905Z,29.49
2023-08-06T15:48:24.828Z,29.44
2023-08-06T15:50:54.371Z,29.54
2023-08-06T15:53:23.087Z,29.56
2023-08-06T15:55:53.395Z,29.40
2023-08-06T15:58:21.906Z,29.31
2023-08-06T16:00:50.421Z,29.25
2023-08-06T16:03:19.134Z,29.33
2023-08-06T16:05:47.843Z,29.28
2023-08-06T16:08:16.234Z,29.20
2023-08-06T16:10:46.450Z,29.03
2023-08-06T16:13:17.889Z,29.02
2023-08-06T16:15:47.181Z,28.98
2023-08-06T16:18:16.010Z,28.80
2023-08-06T16:20:45.127Z,28.87
2023-08-06T16:23:14.067Z,28.78
2023-08-06T16:25:46.496Z,28.82
2023-08-06T16:28:17.151Z,28.85
2023-08-06T16:30:47.254Z,28.69
2023-08-06T16:33:16.080Z,28.71
2023-08-06T16:35:45.432Z,28.70
2023-08-06T16:38:16.560Z,28.56
2023-08-06T16:40:54.261Z,28.48
2023-08-06T16:43:25.874Z,28.45
2023-08-06T16:45:55.838Z,28.40
2023-08-06T16:48:28.478Z,28.27
2023-08-06T16:50:58.151Z,28.38
2023-08-06T16:53:30.446Z,28.30
2023-08-06T16:56:07.442Z,28.30
2023-08-06T16:58:45.770Z,28.17
2023-08-06T17:01:16.308Z,28.20
2023-08-06T17:03:52.151Z,27.99
2023-08-06T17:06:20.746Z,28.23
2023-08-06T17:08:49.173Z,28.14
2023-08-06T17:11:18.389Z,28.01
2023-08-06T17:13:49.494Z,27.99
2023-08-06T17:16:19.110Z,27.82
2023-08-06T17:18:47.763Z,27.71
2023-08-06T17:21:16.402Z,27.62
2023-08-06T17:23:45.212Z,27.54
2023-08-06T17:26:13.846Z,27.57
2023-08-06T17:28:42.548Z,27.46
2023-08-06T17:31:12.530Z,27.33
2023-08-06T17:33:41.079Z,27.19
2023-08-06T17:36:10.959Z,27.24
2023-08-06T17:39:13.432Z,27.40
2023-08-06T17:41:43.847Z,27.31
2023-08-06T17:44:17.298Z,27.35
2023-08-06T17:46:51.396Z,27.19
2023-08-06T17:49:27.696Z,27.11
2023-08-06T17:51:56.380Z,27.27
2023-08-06T17:54:25.538Z,27.15
2023-08-06T17:56:56.260Z,27.15
2023-08-06T17:59:27.171Z,26.99
2023-08-06T18:01:57.288Z,27.15
2023-08-06T18:04:26.072Z,26.96
2023-08-06T18:06:54.940Z,26.96
2023-08-06T18:09:23.787Z,27.04
2023-08-06T18:11:52.287Z,26.99
2023-08-06T18:14:20.802Z,26.92
2023-08-06T18:16:49.298Z,26.85
2023-08-06T18:19:19.623Z,26.79
2023-08-06T18:21:48.245Z,26.80
2023-08-06T18:24:17.102Z,26.83
2023-08-06T18:26:45.675Z,26.74
2023-08-06T18:29:14.252Z,26.66
2023-08-06T18:31:42.806Z,26.44
2023-08-06T18:34:11.945Z,26.60
2023-08-06T18:36:41.794Z,26.62
2023-08-06T18:39:10.583Z,26.59
2023-08-06T18:41:39.150Z,26.66
2023-08-06T18:44:07.744Z,26.61
2023-08-06T18:46:36.961Z,26.77
2023-08-06T18:49:05.894Z,26.48
2023-08-06T18:51:34.449Z,26.47
2023-08-06T18:54:04.397Z,26.23
2023-08-06T18:56:32.923Z,26.31
2023-08-06T18:59:04.365Z,26.21
2023-08-06T19:01:32.966Z,26.09
2023-08-06T19:04:01.499Z,26.03
2023-08-06T19:06:32.021Z,25.88
2023-08-06T19:09:00.854Z,25.86
2023-08-06T19:11:31.760Z,25.90
2023-08-06T19:14:00.430Z,25.78
2023-08-06T19:16:28.932Z,25.66
2023-08-06T19:18:57.652Z,25.55
2023-08-06T19:21:26.264Z,25.58
2023-08-06T19:23:55.914Z,25.53
2023-08-06T19:26:24.645Z,25.52
2023-08-06T19:28:56.263Z,25.52
2023-08-06T19:31:25.948Z,25.46
2023-08-06T19:33:59.289Z,25.51
2023-08-06T19:36:29.085Z,25.70
2023-08-06T19:38:57.638Z,25.59
2023-08-06T19:41:26.346Z,25.46
2023-08-06T19:43:57.659Z,25.50
2023-08-06T19:46:26.291Z,25.50
2023-08-06T19:48:54.969Z,25.65
2023-08-06T19:51:23.811Z,25.46
2023-08-06T19:53:52.186Z,25.47
2023-08-06T19:56:23.109Z,25.34
2023-08-06T19:58:54.536Z,25.23
2023-08-06T20:01:24.712Z,25.34
2023-08-06T20:03:53.066Z,25.49
2023-08-06T20:06:27.463Z,25.42
2023-08-06T20:08:56.613Z,25.27
2023-08-06T20:11:25.711Z,25.14
2023-08-06T20:13:54.590Z,25.08
2023-08-06T20:16:24.495Z,25.30
2023-08-06T20:18:53.351Z,25.58
2023-08-06T20:21:22.049Z,25.68
2023-08-06T20:24:03.931Z,25.44
2023-08-06T20:26:32.567Z,25.44
2023-08-06T20:29:02.290Z,25.45
2023-08-06T20:31:32.410Z,25.57
2023-08-06T20:34:03.382Z,25.45
2023-08-06T20:36:32.642Z,25.40
2023-08-06T20:39:01.079Z,25.33
2023-08-06T20:41:29.709Z,25.41
2023-08-06T20:43:58.164Z,25.29
2023-08-06T20:46:26.785Z,25.27
2023-08-06T20:48:57.065Z,25.32
2023-08-06T20:51:25.645Z,25.34
2023-08-06T20:53:54.167Z,25.39
2023-08-06T20:56:22.755Z,25.24
2023-08-06T20:58:51.352Z,25.29
2023-08-06T21:01:20.244Z,25.28
2023-08-06T21:03:50.503Z,25.31
2023-08-06T21:06:33.728Z,25.14
2023-08-06T21:09:05.176Z,25.20
2023-08-06T21:11:34.054Z,25.16
2023-08-06T21:14:02.582Z,25.23
2023-08-06T21:16:31.934Z,25.45
2023-08-06T21:19:01.844Z,25.23
2023-08-06T21:21:32.814Z,25.13
2023-08-06T21:24:01.876Z,25.30
2023-08-06T21:26:30.621Z,25.19
2023-08-06T21:28:59.167Z,25.06
2023-08-06T21:31:28.441Z,25.14
2023-08-06T21:33:56.869Z,25.13
2023-08-06T21:36:26.580Z,25.06
2023-08-06T21:38:56.575Z,24.94
2023-08-06T21:41:25.125Z,24.97
2023-08-06T21:43:54.877Z,25.10
2023-08-06T21:46:23.523Z,24.89
2023-08-06T21:48:52.509Z,24.93
2023-08-06T21:51:21.892Z,24.86
2023-08-06T21:53:50.652Z,24.80
2023-08-06T21:56:20.642Z,24.86
2023-08-06T21:58:50.882Z,24.93
2023-08-06T22:01:19.758Z,24.69
2023-08-06T22:03:49.894Z,24.63
2023-08-06T22:06:18.739Z,24.74
2023-08-06T22:08:47.144Z,24.75
2023-08-06T22:11:15.740Z,24.62
2023-08-06T22:13:45.952Z,24.67
2023-08-06T22:16:17.004Z,24.71
2023-08-06T22:18:45.534Z,24.65
2023-08-06T22:21:14.030Z,24.73
2023-08-06T22:23:43.982Z,24.48
2023-08-06T22:26:12.865Z,24.16
2023-08-06T22:28:51.740Z,24.22
2023-08-06T22:31:29.987Z,23.96
2023-08-06T22:33:58.721Z,23.96
2023-08-06T22:36:28.277Z,24.09
2023-08-06T22:38:56.674Z,24.18
2023-08-06T22:41:26.086Z,24.34
2023-08-06T22:43:54.745Z,24.20
2023-08-06T22:46:23.982Z,24.35
2023-08-06T22:48:54.054Z,24.14
2023-08-06T22:51:24.300Z,24.11
2023-08-06T22:53:52.816Z,24.06
2023-08-06T22:56:21.528Z,23.97
2023-08-06T22:58:51.236Z,23.84
2023-08-06T23:01:20.233Z,23.85
2023-08-06T23:03:49.727Z,23.94
2023-08-06T23:06:19.655Z,23.91
2023-08-06T23:08:50.026Z,23.88
2023-08-06T23:11:18.877Z,23.88
2023-08-06T23:13:49.174Z,23.79
2023-08-06T23:16:17.894Z,23.86
2023-08-06T23:18:46.480Z,23.82
2023-08-06T23:21:15.108Z,23.84
2023-08-06T23:23:44.966Z,23.77
2023-08-06T23:26:13.545Z,23.70
2023-08-06T23:28:44.327Z,23.71
2023-08-06T23:31:13.743Z,23.69
2023-08-06T23:33:42.748Z,23.66
2023-08-06T23:36:11.233Z,23.67
2023-08-06T23:38:39.783Z,23.61
2023-08-06T23:41:10.414Z,23.58
2023-08-06T23:43:39.006Z,23.51
2023-08-06T23:46:07.652Z,23.52
2023-08-06T23:48:36.464Z,23.53
2023-08-06T23:51:05.258Z,23.48
2023-08-06T23:53:34.156Z,23.55
2023-08-06T23:56:02.675Z,23.44
2023-08-06T23:58:32.753Z,23.44
